createdAt,value
2023-03-02T00:01:55.673Z,98937.25
2023-03-02T00:04:27.668Z,98941.75
2023-03-02T00:06:58.293Z,98950.28
2023-03-02T00:09:27.054Z,98946.41
2023-03-02T00:11:55.471Z,98942.25
2023-03-02T00:14:24.386Z,98939.94
2023-03-02T00:16:53.288Z,98934.22
2023-03-02T00:19:21.815Z,98928.59
2023-03-02T00:21:51.931Z,98942.38
2023-03-02T00:24:21.732Z,98934.78
2023-03-02T00:26:50.211Z,98938.38
2023-03-02T00:29:18.690Z,98938.41
2023-03-02T00:31:48.695Z,98955.25
2023-03-02T00:34:17.625Z,98959.34
2023-03-02T00:36:47.873Z,98958.00
2023-03-02T00:39:20.343Z,98962.84
2023-03-02T00:41:49.753Z,98966.16
2023-03-02T00:44:19.733Z,98972.13
2023-03-02T00:46:48.292Z,98978.19
2023-03-02T00:49:16.704Z,98978.22
2023-03-02T00:51:45.220Z,98978.97
2023-03-02T00:54:14.838Z,98972.94
2023-03-02T00:56:45.044Z,98977.03
2023-03-02T00:59:26.529Z,98984.47
2023-03-02T01:02:23.737Z,98978.28
2023-03-02T01:04:54.522Z,98984.53
2023-03-02T01:07:25.031Z,98971.00
2023-03-02T01:09:53.972Z,98979.81
2023-03-02T01:12:24.249Z,98979.59
2023-03-02T01:14:52.865Z,98992.25
2023-03-02T01:17:25.455Z,98987.94
2023-03-02T01:19:54.395Z,98996.56
2023-03-02T01:22:22.965Z,98993.28
2023-03-02T01:24:52.300Z,98996.03
2023-03-02T01:27:21.125Z,98997.06
2023-03-02T01:29:51.551Z,98994.53
2023-03-02T01:32:20.040Z,98994.44
2023-03-02T01:34:51.659Z,98969.00
2023-03-02T01:37:21.133Z,98965.22
2023-03-02T01:39:50.361Z,98968.31
2023-03-02T01:42:19.698Z,98972.19
2023-03-02T01:44:50.864Z,98986.69
2023-03-02T01:47:21.880Z,98990.72
2023-03-02T01:50:00.620Z,99006.16
2023-03-02T01:52:33.149Z,99017.25
2023-03-02T01:55:03.641Z,98997.81
2023-03-02T01:57:34.862Z,99012.25
2023-03-02T02:00:08.736Z,99020.34
2023-03-02T02:02:42.666Z,99025.69
2023-03-02T02:05:14.623Z,99022.13
2023-03-02T02:07:43.594Z,99012.09
2023-03-02T02:10:13.437Z,99004.28
2023-03-02T02:12:42.628Z,99014.59
2023-03-02T02:15:32.357Z,99015.28
2023-03-02T02:18:00.896Z,99014.31
2023-03-02T02:20:34.123Z,99022.13
2023-03-02T02:23:11.201Z,99009.06
2023-03-02T02:25:46.614Z,99021.75
2023-03-02T02:28:20.328Z,99009.06
2023-03-02T02:30:52.681Z,99008.13
2023-03-02T02:33:26.065Z,99016.47
2023-03-02T02:36:01.658Z,99033.19
2023-03-02T02:38:31.480Z,99028.13
2023-03-02T02:41:01.941Z,99027.66
2023-03-02T02:43:35.594Z,99041.78
2023-03-02T02:46:04.429Z,99041.72
2023-03-02T02:48:33.422Z,99024.06
2023-03-02T02:51:03.381Z,99032.53
2023-03-02T02:53:37.121Z,99034.88
2023-03-02T02:56:06.627Z,99040.88
2023-03-02T02:58:40.857Z,99044.91
2023-03-02T03:01:09.748Z,99055.13
2023-03-02T03:03:40.415Z,99047.44
2023-03-02T03:06:18.504Z,99040.72
2023-03-02T03:09:00.499Z,99053.88
2023-03-02T03:11:44.680Z,99070.84
2023-03-02T03:14:16.630Z,99060.00
2023-03-02T03:16:50.913Z,99066.72
2023-03-02T03:19:21.933Z,99070.19
2023-03-02T03:21:52.618Z,99065.28
2023-03-02T03:24:22.796Z,99050.91
2023-03-02T03:26:52.124Z,99050.91
2023-03-02T03:29:24.357Z,99041.78
2023-03-02T03:31:54.936Z,99051.78
2023-03-02T03:34:25.319Z,99048.38
2023-03-02T03:36:54.145Z,99047.44
2023-03-02T03:39:24.466Z,99049.59
2023-03-02T03:41:53.202Z,99045.34
2023-03-02T03:44:24.291Z,99038.41
2023-03-02T03:47:02.347Z,99042.66
2023-03-02T03:49:31.242Z,99040.03
2023-03-02T03:51:59.714Z,99046.63
2023-03-02T03:54:28.182Z,99035.72
2023-03-02T03:56:56.845Z,99030.63
2023-03-02T03:59:28.218Z,99040.97
2023-03-02T04:02:04.208Z,99036.09
2023-03-02T04:04:42.693Z,99042.06
2023-03-02T04:07:17.055Z,99048.88
2023-03-02T04:09:47.030Z,99047.88
2023-03-02T04:12:16.828Z,99059.72
2023-03-02T04:14:52.523Z,99051.34
2023-03-02T04:17:21.251Z,99055.63
2023-03-02T04:19:52.124Z,99060.69
2023-03-02T04:22:21.488Z,99050.81
2023-03-02T04:24:51.901Z,99055.25
2023-03-02T04:27:21.400Z,99054.31
2023-03-02T04:29:54.717Z,99059.56
2023-03-02T04:32:23.653Z,99065.53
2023-03-02T04:34:58.299Z,99067.28
2023-03-02T04:37:28.077Z,99073.88
2023-03-02T04:39:56.422Z,99075.66
2023-03-02T04:42:26.795Z,99086.78
2023-03-02T04:44:56.923Z,99092.88
2023-03-02T04:47:25.340Z,99110.53
2023-03-02T04:49:57.090Z,99101.34
2023-03-02T04:52:29.837Z,99113.25
2023-03-02T04:54:58.622Z,99109.59
2023-03-02T04:57:26.953Z,99107.06
2023-03-02T04:59:56.790Z,99114.81
2023-03-02T05:02:25.316Z,99125.03
2023-03-02T05:04:55.362Z,99124.22
2023-03-02T05:07:24.002Z,99126.03
2023-03-02T05:09:52.765Z,99129.06
2023-03-02T05:12:22.216Z,99142.75
2023-03-02T05:14:50.809Z,99139.41
2023-03-02T05:17:20.924Z,99138.53
2023-03-02T05:19:49.489Z,99137.38
2023-03-02T05:22:17.784Z,99137.09
2023-03-02T05:24:46.381Z,99133.88
2023-03-02T05:27:14.877Z,99139.81
2023-03-02T05:29:43.401Z,99149.84
2023-03-02T05:32:12.766Z,99146.72
2023-03-02T05:34:42.714Z,99150.59
2023-03-02T05:37:11.476Z,99151.47
2023-03-02T05:39:39.891Z,99157.13
2023-03-02T05:42:08.585Z,99146.41
2023-03-02T05:44:37.468Z,99140.66
2023-03-02T05:47:06.293Z,99147.56
2023-03-02T05:49:35.347Z,99145.22
2023-03-02T05:52:05.079Z,99150.47
2023-03-02T05:54:34.278Z,99143.19
2023-03-02T05:57:04.095Z,99144.22
2023-03-02T05:59:32.442Z,99144.47
2023-03-02T06:02:01.588Z,99147.56
2023-03-02T06:04:30.067Z,99150.22
2023-03-02T06:06:58.640Z,99158.81
2023-03-02T06:09:28.591Z,99165.22
2023-03-02T06:11:56.940Z,99166.13
2023-03-02T06:14:25.615Z,99159.91
2023-03-02T06:16:54.199Z,99166.38
2023-03-02T06:19:23.213Z,99156.56
2023-03-02T06:21:51.598Z,99165.63
2023-03-02T06:24:20.441Z,99167.66
2023-03-02T06:26:50.400Z,99158.66
2023-03-02T06:29:18.867Z,99153.38
2023-03-02T06:31:47.335Z,99154.56
2023-03-02T06:34:16.146Z,99155.94
2023-03-02T06:36:44.855Z,99141.50
2023-03-02T06:39:16.920Z,99147.03
2023-03-02T06:41:46.423Z,99143.28
2023-03-02T06:44:17.484Z,99140.41
2023-03-02T06:46:46.581Z,99139.06
2023-03-02T06:49:14.882Z,99125.41
2023-03-02T06:51:43.692Z,99128.19
2023-03-02T06:54:12.285Z,99124.84
2023-03-02T06:56:41.204Z,99120.25
2023-03-02T06:59:09.980Z,99129.22
2023-03-02T07:01:40.182Z,99124.53
2023-03-02T07:04:08.734Z,99134.41
2023-03-02T07:06:37.637Z,99129.72
2023-03-02T07:09:06.351Z,99117.00
2023-03-02T07:11:35.141Z,99120.44
2023-03-02T07:14:06.287Z,99117.47
2023-03-02T07:16:35.179Z,99126.88
2023-03-02T07:19:05.015Z,99125.72
2023-03-02T07:21:34.154Z,99123.47
2023-03-02T07:24:02.838Z,99132.81
2023-03-02T07:26:32.059Z,99126.06
2023-03-02T07:29:01.174Z,99131.25
2023-03-02T07:31:29.986Z,99123.69
2023-03-02T07:33:59.847Z,99120.84
2023-03-02T07:36:32.433Z,99126.47
2023-03-02T07:39:00.909Z,99121.00
2023-03-02T07:41:29.600Z,99129.38
2023-03-02T07:43:58.346Z,99124.59
2023-03-02T07:46:26.972Z,99130.19
2023-03-02T07:48:55.562Z,99132.50
2023-03-02T07:51:24.168Z,99126.38
2023-03-02T07:53:54.215Z,99124.19
2023-03-02T07:56:23.016Z,99133.06
2023-03-02T07:58:51.828Z,99126.47
2023-03-02T08:01:20.381Z,99123.41
2023-03-02T08:03:48.802Z,99109.31
2023-03-02T08:06:17.419Z,99111.97
2023-03-02T08:08:46.243Z,99104.19
2023-03-02T08:11:18.816Z,99100.38
2023-03-02T08:13:47.795Z,99089.63
2023-03-02T08:16:17.061Z,99095.84
2023-03-02T08:18:45.843Z,99088.84
2023-03-02T08:21:15.830Z,99080.97
2023-03-02T08:23:47.994Z,99084.56
2023-03-02T08:26:19.085Z,99083.75
2023-03-02T08:28:48.443Z,99086.63
2023-03-02T08:31:17.181Z,99093.13
2023-03-02T08:33:47.416Z,99089.16
2023-03-02T08:36:17.245Z,99093.25
2023-03-02T08:38:46.564Z,99105.16
2023-03-02T08:41:16.971Z,99097.38
2023-03-02T08:43:46.957Z,99091.84
2023-03-02T08:46:17.154Z,99094.38
2023-03-02T08:48:51.449Z,99085.50
2023-03-02T08:51:21.631Z,99092.69
2023-03-02T08:53:51.634Z,99083.75
2023-03-02T08:56:22.015Z,99097.59
2023-03-02T08:58:53.157Z,99089.97
2023-03-02T09:01:33.371Z,99089.44
2023-03-02T09:04:03.507Z,99085.22
2023-03-02T09:06:34.162Z,99092.34
2023-03-02T09:09:03.372Z,99090.59
2023-03-02T09:11:32.687Z,99096.78
2023-03-02T09:14:03.396Z,99090.53
2023-03-02T09:16:32.205Z,99086.41
2023-03-02T09:19:00.987Z,99088.28
2023-03-02T09:21:32.089Z,99075.38
2023-03-02T09:24:02.788Z,99089.94
2023-03-02T09:26:31.212Z,99081.94
2023-03-02T09:28:59.912Z,99082.19
2023-03-02T09:31:30.559Z,99070.50
2023-03-02T09:33:59.182Z,99073.31
2023-03-02T09:36:28.326Z,99065.91
2023-03-02T09:38:59.125Z,99069.22
2023-03-02T09:41:46.794Z,99054.34
2023-03-02T09:44:33.002Z,99040.53
2023-03-02T09:47:05.414Z,99054.56
2023-03-02T09:49:48.342Z,99059.53
2023-03-02T09:52:28.497Z,99046.19
2023-03-02T09:54:57.248Z,99047.94
2023-03-02T09:57:29.738Z,99047.88
2023-03-02T10:00:09.535Z,99043.50
2023-03-02T10:02:50.292Z,99043.94
2023-03-02T10:05:23.439Z,99035.66
2023-03-02T10:07:52.481Z,99027.38
2023-03-02T10:10:27.799Z,99026.66
2023-03-02T10:13:15.756Z,99013.69
2023-03-02T10:15:50.461Z,99013.34
2023-03-02T10:18:24.337Z,99024.47
2023-03-02T10:20:56.183Z,98996.59
2023-03-02T10:23:34.446Z,99004.53
2023-03-02T10:26:11.169Z,98989.09
2023-03-02T10:28:43.872Z,98987.69
2023-03-02T10:31:21.171Z,98995.22
2023-03-02T10:33:51.582Z,98989.94
2023-03-02T10:36:24.224Z,98991.00
2023-03-02T10:38:53.592Z,98988.84
2023-03-02T10:41:26.752Z,98976.72
2023-03-02T10:43:57.652Z,98980.50
2023-03-02T10:46:26.244Z,98979.56
2023-03-02T10:49:01.455Z,98974.41
2023-03-02T10:51:32.077Z,98981.13
2023-03-02T10:54:08.454Z,98971.63
2023-03-02T10:56:37.112Z,98969.28
2023-03-02T10:59:16.458Z,98959.41
2023-03-02T11:01:45.236Z,98951.63
2023-03-02T11:04:17.858Z,98949.19
2023-03-02T11:06:46.354Z,98944.16
2023-03-02T11:09:15.548Z,98944.38
2023-03-02T11:11:59.212Z,98929.84
2023-03-02T11:14:28.184Z,98934.69
2023-03-02T11:17:01.373Z,98913.75
2023-03-02T11:19:36.387Z,98913.91
2023-03-02T11:22:14.015Z,98912.78
2023-03-02T11:24:44.562Z,98900.25
2023-03-02T11:27:16.470Z,98902.66
2023-03-02T11:29:48.367Z,98888.63
2023-03-02T11:32:20.025Z,98897.00
2023-03-02T11:34:52.357Z,98893.88
2023-03-02T11:37:24.937Z,98887.03
2023-03-02T11:40:10.082Z,98888.56
2023-03-02T11:42:38.900Z,98883.50
2023-03-02T11:45:22.014Z,98886.31
2023-03-02T11:48:02.104Z,98892.44
2023-03-02T11:50:34.529Z,98885.56
2023-03-02T11:53:06.404Z,98878.25
2023-03-02T11:55:41.590Z,98875.03
2023-03-02T11:58:18.476Z,98880.34
2023-03-02T12:00:48.301Z,98882.75
2023-03-02T12:03:25.509Z,98874.41
2023-03-02T12:06:05.242Z,98871.53
2023-03-02T12:08:40.522Z,98874.63
2023-03-02T12:11:10.608Z,98857.53
2023-03-02T12:13:39.979Z,98866.03
2023-03-02T12:16:21.539Z,98876.75
2023-03-02T12:18:50.550Z,98875.06
2023-03-02T12:21:22.058Z,98862.34
2023-03-02T12:24:00.323Z,98859.72
2023-03-02T12:26:35.821Z,98854.19
2023-03-02T12:29:08.704Z,98847.44
2023-03-02T12:31:49.998Z,98845.47
2023-03-02T12:34:38.012Z,98842.69
2023-03-02T12:37:16.854Z,98842.38
2023-03-02T12:40:27.809Z,98831.25
2023-03-02T12:43:13.783Z,98838.78
2023-03-02T12:45:51.322Z,98833.34
2023-03-02T12:48:27.912Z,98836.31
2023-03-02T12:51:02.220Z,98818.53
2023-03-02T12:53:32.436Z,98806.78
2023-03-02T12:56:01.813Z,98804.56
2023-03-02T12:58:32.719Z,98803.72
2023-03-02T13:01:03.186Z,98794.25
2023-03-02T13:03:33.450Z,98790.44
2023-03-02T13:06:03.545Z,98772.72
2023-03-02T13:08:34.965Z,98771.31
2023-03-02T13:11:04.200Z,98757.47
2023-03-02T13:13:38.579Z,98761.94
2023-03-02T13:16:08.727Z,98752.31
2023-03-02T13:18:39.758Z,98762.34
2023-03-02T13:21:11.562Z,98763.97
2023-03-02T13:23:46.808Z,98759.78
2023-03-02T13:26:26.835Z,98757.22
2023-03-02T13:29:07.255Z,98748.81
2023-03-02T13:31:38.850Z,98740.81
2023-03-02T13:34:07.588Z,98736.31
2023-03-02T13:36:39.401Z,98722.63
2023-03-02T13:39:20.935Z,98726.06
2023-03-02T13:41:56.859Z,98712.53
2023-03-02T13:44:29.287Z,98720.09
2023-03-02T13:46:58.123Z,98711.56
2023-03-02T13:49:31.083Z,98709.19
2023-03-02T13:52:03.342Z,98706.50
2023-03-02T13:54:35.816Z,98710.81
2023-03-02T13:57:05.456Z,98698.88
2023-03-02T13:59:36.639Z,98685.31
2023-03-02T14:02:07.905Z,98685.31
2023-03-02T14:04:36.791Z,98680.06
2023-03-02T14:07:06.461Z,98681.81
2023-03-02T14:09:39.182Z,98679.28
2023-03-02T14:12:08.274Z,98674.88
2023-03-02T14:14:39.151Z,98679.19
2023-03-02T14:17:13.755Z,98663.09
2023-03-02T14:19:42.518Z,98660.59
2023-03-02T14:22:12.030Z,98660.63
2023-03-02T14:24:42.498Z,98646.19
2023-03-02T14:27:14.345Z,98643.59
2023-03-02T14:29:45.097Z,98650.41
2023-03-02T14:32:14.746Z,98652.00
2023-03-02T14:34:43.226Z,98644.28
2023-03-02T14:37:14.832Z,98635.16
2023-03-02T14:39:48.527Z,98637.69
2023-03-02T14:42:20.950Z,98634.34
2023-03-02T14:44:50.917Z,98617.31
2023-03-02T14:47:19.963Z,98635.06
2023-03-02T14:49:50.268Z,98627.41
2023-03-02T14:52:23.697Z,98615.66
2023-03-02T14:54:56.711Z,98612.97
2023-03-02T14:57:28.133Z,98606.19
2023-03-02T15:00:00.038Z,98607.53
2023-03-02T15:02:29.215Z,98601.72
2023-03-02T15:04:58.496Z,98598.91
2023-03-02T15:07:28.183Z,98604.88
2023-03-02T15:09:58.786Z,98612.56
2023-03-02T15:12:27.580Z,98604.09
2023-03-02T15:14:56.586Z,98604.22
2023-03-02T15:17:25.050Z,98605.09
2023-03-02T15:19:53.773Z,98597.44
2023-03-02T15:22:23.130Z,98594.88
2023-03-02T15:24:51.616Z,98602.56
2023-03-02T15:27:23.702Z,98604.44
2023-03-02T15:29:52.402Z,98597.50
2023-03-02T15:32:21.487Z,98596.63
2023-03-02T15:34:50.194Z,98595.94
2023-03-02T15:37:18.653Z,98597.44
2023-03-02T15:39:47.281Z,98585.72
2023-03-02T15:42:15.674Z,98601.84
2023-03-02T15:44:45.807Z,98599.16
2023-03-02T15:47:14.279Z,98594.28
2023-03-02T15:49:42.875Z,98594.25
2023-03-02T15:52:17.004Z,98598.44
2023-03-02T15:54:45.810Z,98583.06
2023-03-02T15:57:14.197Z,98582.25
2023-03-02T15:59:43.731Z,98596.91
2023-03-02T16:02:13.803Z,98590.09
2023-03-02T16:04:42.392Z,98592.66
2023-03-02T16:07:11.017Z,98588.34
2023-03-02T16:09:42.015Z,98592.75
2023-03-02T16:12:10.694Z,98581.81
2023-03-02T16:14:39.356Z,98586.88
2023-03-02T16:17:08.795Z,98579.03
2023-03-02T16:19:38.938Z,98583.41
2023-03-02T16:22:07.673Z,98581.41
2023-03-02T16:24:36.373Z,98591.69
2023-03-02T16:27:05.302Z,98597.47
2023-03-02T16:29:33.665Z,98591.41
2023-03-02T16:32:02.448Z,98589.72
2023-03-02T16:34:30.921Z,98583.00
2023-03-02T16:37:00.848Z,98588.94
2023-03-02T16:39:29.886Z,98588.09
2023-03-02T16:41:58.600Z,98582.47
2023-03-02T16:44:27.136Z,98577.28
2023-03-02T16:46:57.320Z,98578.97
2023-03-02T16:49:27.169Z,98566.28
2023-03-02T16:51:58.301Z,98574.97
2023-03-02T16:54:29.015Z,98561.50
2023-03-02T16:56:57.788Z,98564.84
2023-03-02T16:59:26.492Z,98570.69
2023-03-02T17:01:55.056Z,98564.84
2023-03-02T17:04:23.570Z,98549.50
2023-03-02T17:07:00.574Z,98555.50
2023-03-02T17:09:31.883Z,98552.13
2023-03-02T17:12:01.870Z,98549.59
2023-03-02T17:14:30.440Z,98546.38
2023-03-02T17:16:59.174Z,98543.00
2023-03-02T17:19:29.784Z,98559.13
2023-03-02T17:21:59.539Z,98553.91
2023-03-02T17:24:28.328Z,98557.38
2023-03-02T17:26:58.481Z,98556.56
2023-03-02T17:29:27.378Z,98549.06
2023-03-02T17:31:56.057Z,98549.97
2023-03-02T17:34:28.805Z,98547.47
2023-03-02T17:36:57.304Z,98527.09
2023-03-02T17:39:25.989Z,98550.84
2023-03-02T17:41:55.685Z,98548.38
2023-03-02T17:44:25.584Z,98539.84
2023-03-02T17:46:54.798Z,98537.44
2023-03-02T17:49:23.799Z,98545.84
2023-03-02T17:51:52.407Z,98535.78
2023-03-02T17:54:20.918Z,98540.88
2023-03-02T17:56:49.514Z,98538.38
2023-03-02T17:59:17.964Z,98549.44
2023-03-02T18:01:47.899Z,98543.47
2023-03-02T18:04:16.897Z,98549.44
2023-03-02T18:06:45.729Z,98548.63
2023-03-02T18:09:14.098Z,98539.16
2023-03-02T18:11:42.721Z,98538.25
2023-03-02T18:14:16.374Z,98533.94
2023-03-02T18:16:44.915Z,98527.25
2023-03-02T18:19:15.530Z,98529.00
2023-03-02T18:21:45.807Z,98534.16
2023-03-02T18:24:14.159Z,98528.28
2023-03-02T18:26:42.924Z,98525.63
2023-03-02T18:29:11.640Z,98533.38
2023-03-02T18:31:40.521Z,98528.34
2023-03-02T18:34:09.065Z,98529.25
2023-03-02T18:36:39.032Z,98525.13
2023-03-02T18:39:07.687Z,98520.88
2023-03-02T18:41:36.148Z,98520.88
2023-03-02T18:44:04.823Z,98526.09
2023-03-02T18:46:34.580Z,98526.91
2023-03-02T18:49:04.557Z,98523.44
2023-03-02T18:51:33.396Z,98527.88
2023-03-02T18:54:03.155Z,98533.72
2023-03-02T18:56:32.161Z,98524.50
2023-03-02T18:59:00.728Z,98528.56
2023-03-02T19:01:32.302Z,98513.31
2023-03-02T19:04:02.423Z,98515.03
2023-03-02T19:06:30.755Z,98519.31
2023-03-02T19:08:59.423Z,98527.03
2023-03-02T19:11:29.605Z,98522.75
2023-03-02T19:13:58.266Z,98515.97
2023-03-02T19:16:26.827Z,98519.34
2023-03-02T19:18:55.373Z,98510.84
2023-03-02T19:21:24.094Z,98509.13
2023-03-02T19:23:53.056Z,98515.94
2023-03-02T19:26:21.521Z,98501.59
2023-03-02T19:28:51.835Z,98491.47
2023-03-02T19:31:20.505Z,98504.19
2023-03-02T19:33:49.486Z,98506.78
2023-03-02T19:36:17.968Z,98494.81
2023-03-02T19:38:46.509Z,98493.81
2023-03-02T19:41:17.038Z,98499.84
2023-03-02T19:43:47.929Z,98496.34
2023-03-02T19:46:18.559Z,98503.25
2023-03-02T19:48:47.272Z,98490.56
2023-03-02T19:51:15.805Z,98493.91
2023-03-02T19:53:46.136Z,98487.84
2023-03-02T19:56:16.599Z,98489.72
2023-03-02T19:58:50.370Z,98484.63
2023-03-02T20:01:25.124Z,98483.03
2023-03-02T20:03:55.992Z,98487.38
2023-03-02T20:06:26.263Z,98471.94
2023-03-02T20:08:55.127Z,98479.75
2023-03-02T20:11:25.068Z,98482.44
2023-03-02T20:13:53.664Z,98468.78
2023-03-02T20:16:25.278Z,98465.44
2023-03-02T20:18:54.443Z,98465.53
2023-03-02T20:21:26.736Z,98474.78
2023-03-02T20:23:55.748Z,98473.97
2023-03-02T20:26:25.679Z,98468.97
2023-03-02T20:28:55.892Z,98461.25
2023-03-02T20:31:32.221Z,98457.91
2023-03-02T20:34:04.180Z,98435.84
2023-03-02T20:36:35.637Z,98449.34
2023-03-02T20:39:09.391Z,98449.34
2023-03-02T20:41:38.221Z,98438.38
2023-03-02T20:44:07.475Z,98447.81
2023-03-02T20:46:40.199Z,98441.03
2023-03-02T20:49:09.738Z,98441.94
2023-03-02T20:51:40.054Z,98441.09
2023-03-02T20:54:09.110Z,98431.72
2023-03-02T20:56:39.660Z,98430.16
2023-03-02T20:59:08.173Z,98433.69
2023-03-02T21:01:38.400Z,98429.31
2023-03-02T21:04:11.112Z,98427.59
2023-03-02T21:06:52.504Z,98434.38
2023-03-02T21:09:21.530Z,98432.66
2023-03-02T21:11:50.419Z,98427.50
2023-03-02T21:14:19.476Z,98419.09
2023-03-02T21:16:49.476Z,98417.47
2023-03-02T21:19:19.879Z,98416.63
2023-03-02T21:21:49.174Z,98408.94
2023-03-02T21:24:18.317Z,98406.50
2023-03-02T21:26:48.326Z,98414.94
2023-03-02T21:29:18.714Z,98414.03
2023-03-02T21:31:48.990Z,98414.06
2023-03-02T21:34:19.286Z,98415.69
2023-03-02T21:36:48.448Z,98398.69
2023-03-02T21:39:17.568Z,98413.16
2023-03-02T21:41:46.402Z,98412.25
2023-03-02T21:44:15.272Z,98395.31
2023-03-02T21:46:44.047Z,98391.78
2023-03-02T21:49:16.492Z,98401.97
2023-03-02T21:51:45.355Z,98394.22
2023-03-02T21:54:14.199Z,98397.75
2023-03-02T21:56:43.803Z,98413.03
2023-03-02T21:59:12.989Z,98405.41
2023-03-02T22:01:41.661Z,98398.59
2023-03-02T22:04:10.558Z,98392.75
2023-03-02T22:06:42.232Z,98395.22
2023-03-02T22:09:11.490Z,98390.09
2023-03-02T22:11:40.447Z,98384.22
2023-03-02T22:14:13.087Z,98384.94
2023-03-02T22:16:45.185Z,98381.63
2023-03-02T22:19:25.222Z,98373.91
2023-03-02T22:21:56.226Z,98374.78
2023-03-02T22:24:26.863Z,98373.03
2023-03-02T22:27:00.064Z,98363.72
2023-03-02T22:29:30.405Z,98358.59
2023-03-02T22:32:07.485Z,98365.28
2023-03-02T22:34:37.272Z,98358.44
2023-03-02T22:37:14.527Z,98375.31
2023-03-02T22:39:43.091Z,98355.78
2023-03-02T22:42:14.544Z,98352.38
2023-03-02T22:44:43.126Z,98354.88
2023-03-02T22:47:16.781Z,98365.94
2023-03-02T22:49:45.829Z,98358.19
2023-03-02T22:52:18.140Z,98363.16
2023-03-02T22:54:47.861Z,98359.03
2023-03-02T22:57:26.995Z,98352.31
2023-03-02T23:00:21.632Z,98351.56
2023-03-02T23:02:50.619Z,98350.03
2023-03-02T23:05:31.359Z,98352.69
2023-03-02T23:08:19.732Z,98350.97
2023-03-02T23:10:49.034Z,98339.00
2023-03-02T23:13:19.403Z,98335.56
2023-03-02T23:15:50.453Z,98338.25
2023-03-02T23:18:23.490Z,98337.47
2023-03-02T23:20:53.410Z,98326.66
2023-03-02T23:23:24.977Z,98322.38
2023-03-02T23:25:53.452Z,98325.72
2023-03-02T23:28:22.471Z,98317.28
2023-03-02T23:30:51.137Z,98323.16
2023-03-02T23:33:19.638Z,98311.34
2023-03-02T23:35:49.269Z,98308.75
2023-03-02T23:38:17.649Z,98303.75
2023-03-02T23:40:47.625Z,98313.03
2023-03-02T23:43:16.338Z,98307.94
2023-03-02T23:45:45.203Z,98302.91
2023-03-02T23:48:15.521Z,98296.13
2023-03-02T23:50:44.722Z,98297.97
2023-03-02T23:53:13.565Z,98300.53
2023-03-02T23:55:46.604Z,98284.44
2023-03-02T23:58:16.862Z,98281.09
